sensor_id;sensor_type;location;lat;lon;timestamp;temperature;humidity
55083;DHT22;40978;52.850;6.506;2023-08-21T00:00:44;15.40;99.90
55083;DHT22;40978;52.850;6.506;2023-08-21T00:03:10;15.40;99.90
55083;DHT22;40978;52.850;6.506;2023-08-21T00:05:36;15.40;99.90
55083;DHT22;40978;52.850;6.506;2023-08-21T00:08:02;15.40;99.90
55083;DHT22;40978;52.850;6.506;2023-08-21T00:10:29;15.40;99.90
55083;DHT22;40978;52.850;6.506;2023-08-21T00:12:55;15.40;99.90
55083;DHT22;40978;52.850;6.506;2023-08-21T00:15:20;15.40;99.90
55083;DHT22;40978;52.850;6.506;2023-08-21T00:17:46;15.30;99.90
55083;DHT22;40978;52.850;6.506;2023-08-21T00:20:12;15.30;99.90
55083;DHT22;40978;52.850;6.506;2023-08-21T00:22:38;15.20;99.90
55083;DHT22;40978;52.850;6.506;2023-08-21T00:25:04;15.20;99.90
55083;DHT22;40978;52.850;6.506;2023-08-21T00:27:30;15.10;99.90
55083;DHT22;40978;52.850;6.506;2023-08-21T00:29:57;15.10;99.90
55083;DHT22;40978;52.850;6.506;2023-08-21T00:32:22;15.10;99.90
55083;DHT22;40978;52.850;6.506;2023-08-21T00:34:48;15.00;99.90
55083;DHT22;40978;52.850;6.506;2023-08-21T00:37:14;15.00;99.90
55083;DHT22;40978;52.850;6.506;2023-08-21T00:39:40;15.00;99.90
55083;DHT22;40978;52.850;6.506;2023-08-21T00:42:05;14.90;99.90
55083;DHT22;40978;52.850;6.506;2023-08-21T00:44:32;14.90;99.90
55083;DHT22;40978;52.850;6.506;2023-08-21T00:46:58;14.90;99.90
55083;DHT22;40978;52.850;6.506;2023-08-21T00:49:24;14.80;99.90
55083;DHT22;40978;52.850;6.506;2023-08-21T00:51:50;14.80;99.90
55083;DHT22;40978;52.850;6.506;2023-08-21T00:54:17;14.80;99.90
55083;DHT22;40978;52.850;6.506;2023-08-21T00:56:46;14.70;99.90
55083;DHT22;40978;52.850;6.506;2023-08-21T00:59:12;14.70;99.90
55083;DHT22;40978;52.850;6.506;2023-08-21T01:01:38;14.70;99.90
55083;DHT22;40978;52.850;6.506;2023-08-21T01:04:04;14.70;99.90
55083;DHT22;40978;52.850;6.506;2023-08-21T01:06:30;14.60;99.90
55083;DHT22;40978;52.850;6.506;2023-08-21T01:09:17;14.70;99.90
55083;DHT22;40978;52.850;6.506;2023-08-21T01:12:06;14.60;99.90
55083;DHT22;40978;52.850;6.506;2023-08-21T01:14:54;14.60;99.90
55083;DHT22;40978;52.850;6.506;2023-08-21T01:17:24;14.60;99.90
55083;DHT22;40978;52.850;6.506;2023-08-21T01:19:50;14.50;99.90
55083;DHT22;40978;52.850;6.506;2023-08-21T01:22:16;14.50;99.90
55083;DHT22;40978;52.850;6.506;2023-08-21T01:24:42;14.50;99.90
55083;DHT22;40978;52.850;6.506;2023-08-21T01:27:12;14.50;99.90
55083;DHT22;40978;52.850;6.506;2023-08-21T01:29:39;14.50;99.90
55083;DHT22;40978;52.850;6.506;2023-08-21T01:32:09;14.50;99.90
55083;DHT22;40978;52.850;6.506;2023-08-21T01:34:37;14.50;99.90
55083;DHT22;40978;52.850;6.506;2023-08-21T01:37:04;14.40;99.90
55083;DHT22;40978;52.850;6.506;2023-08-21T01:39:30;14.40;99.90
55083;DHT22;40978;52.850;6.506;2023-08-21T01:41:59;14.40;99.90
55083;DHT22;40978;52.850;6.506;2023-08-21T01:44:25;14.40;99.90
55083;DHT22;40978;52.850;6.506;2023-08-21T01:46:52;14.40;99.90
55083;DHT22;40978;52.850;6.506;2023-08-21T01:49:18;14.30;99.90
55083;DHT22;40978;52.850;6.506;2023-08-21T01:51:45;14.30;99.90
55083;DHT22;40978;52.850;6.506;2023-08-21T01:54:11;14.30;99.90
55083;DHT22;40978;52.850;6.506;2023-08-21T01:56:37;14.30;99.90
55083;DHT22;40978;52.850;6.506;2023-08-21T01:59:04;14.30;99.90
55083;DHT22;40978;52.850;6.506;2023-08-21T02:01:30;14.30;99.90
55083;DHT22;40978;52.850;6.506;2023-08-21T02:03:56;14.30;99.90
55083;DHT22;40978;52.850;6.506;2023-08-21T02:06:21;14.20;99.90
55083;DHT22;40978;52.850;6.506;2023-08-21T02:08:49;14.20;99.90
55083;DHT22;40978;52.850;6.506;2023-08-21T02:11:15;14.20;99.90
55083;DHT22;40978;52.850;6.506;2023-08-21T02:13:40;14.20;99.90
55083;DHT22;40978;52.850;6.506;2023-08-21T02:16:06;14.20;99.90
55083;DHT22;40978;52.850;6.506;2023-08-21T02:18:32;14.10;99.90
55083;DHT22;40978;52.850;6.506;2023-08-21T02:20:57;14.10;99.90
55083;DHT22;40978;52.850;6.506;2023-08-21T02:23:23;14.10;99.90
55083;DHT22;40978;52.850;6.506;2023-08-21T02:25:49;14.10;99.90
55083;DHT22;40978;52.850;6.506;2023-08-21T02:28:15;14.10;99.90
55083;DHT22;40978;52.850;6.506;2023-08-21T02:30:41;14.10;99.90
55083;DHT22;40978;52.850;6.506;2023-08-21T02:33:07;14.10;99.90
55083;DHT22;40978;52.850;6.506;2023-08-21T02:35:33;14.00;99.90
55083;DHT22;40978;52.850;6.506;2023-08-21T02:37:59;14.10;99.90
55083;DHT22;40978;52.850;6.506;2023-08-21T02:40:24;14.10;99.90
55083;DHT22;40978;52.850;6.506;2023-08-21T02:42:50;14.10;99.90
55083;DHT22;40978;52.850;6.506;2023-08-21T02:45:16;14.00;99.90
55083;DHT22;40978;52.850;6.506;2023-08-21T02:47:42;14.00;99.90
55083;DHT22;40978;52.850;6.506;2023-08-21T02:50:09;14.00;99.90
55083;DHT22;40978;52.850;6.506;2023-08-21T02:52:36;14.00;99.90
55083;DHT22;40978;52.850;6.506;2023-08-21T02:55:03;14.00;99.90
55083;DHT22;40978;52.850;6.506;2023-08-21T02:57:29;13.90;99.90
55083;DHT22;40978;52.850;6.506;2023-08-21T02:59:55;13.90;99.90
55083;DHT22;40978;52.850;6.506;2023-08-21T03:02:21;13.90;99.90
55083;DHT22;40978;52.850;6.506;2023-08-21T03:04:47;13.90;99.90
55083;DHT22;40978;52.850;6.506;2023-08-21T03:07:13;13.90;99.90
55083;DHT22;40978;52.850;6.506;2023-08-21T03:09:39;13.90;99.90
55083;DHT22;40978;52.850;6.506;2023-08-21T03:12:06;13.80;99.90
55083;DHT22;40978;52.850;6.506;2023-08-21T03:14:32;13.80;99.90
55083;DHT22;40978;52.850;6.506;2023-08-21T03:16:57;13.80;99.90
55083;DHT22;40978;52.850;6.506;2023-08-21T03:19:23;13.70;99.90
55083;DHT22;40978;52.850;6.506;2023-08-21T03:21:49;13.70;99.90
55083;DHT22;40978;52.850;6.506;2023-08-21T03:24:14;13.60;99.90
55083;DHT22;40978;52.850;6.506;2023-08-21T03:26:40;13.60;99.90
55083;DHT22;40978;52.850;6.506;2023-08-21T03:29:06;13.60;99.90
55083;DHT22;40978;52.850;6.506;2023-08-21T03:31:31;13.50;99.90
55083;DHT22;40978;52.850;6.506;2023-08-21T03:33:57;13.40;99.90
55083;DHT22;40978;52.850;6.506;2023-08-21T03:36:23;13.40;99.90
55083;DHT22;40978;52.850;6.506;2023-08-21T03:38:57;13.40;99.90
55083;DHT22;40978;52.850;6.506;2023-08-21T03:41:23;13.40;99.90
55083;DHT22;40978;52.850;6.506;2023-08-21T03:43:48;13.30;99.90
55083;DHT22;40978;52.850;6.506;2023-08-21T03:46:14;13.30;99.90
55083;DHT22;40978;52.850;6.506;2023-08-21T03:48:40;13.30;99.90
55083;DHT22;40978;52.850;6.506;2023-08-21T03:51:05;13.30;99.90
55083;DHT22;40978;52.850;6.506;2023-08-21T03:53:31;13.30;99.90
55083;DHT22;40978;52.850;6.506;2023-08-21T03:55:57;13.30;99.90
55083;DHT22;40978;52.850;6.506;2023-08-21T03:58:22;13.30;99.90
55083;DHT22;40978;52.850;6.506;2023-08-21T04:00:51;13.30;99.90
55083;DHT22;40978;52.850;6.506;2023-08-21T04:03:17;13.30;99.90
55083;DHT22;40978;52.850;6.506;2023-08-21T04:05:43;13.30;99.90
55083;DHT22;40978;52.850;6.506;2023-08-21T04:08:08;13.30;99.90
55083;DHT22;40978;52.850;6.506;2023-08-21T04:10:34;13.30;99.90
55083;DHT22;40978;52.850;6.506;2023-08-21T04:13:00;13.20;99.90
55083;DHT22;40978;52.850;6.506;2023-08-21T04:15:26;13.20;99.90
55083;DHT22;40978;52.850;6.506;2023-08-21T04:17:52;13.20;99.90
55083;DHT22;40978;52.850;6.506;2023-08-21T04:20:19;13.20;99.90
55083;DHT22;40978;52.850;6.506;2023-08-21T04:22:46;13.20;99.90
55083;DHT22;40978;52.850;6.506;2023-08-21T04:25:12;13.20;99.90
55083;DHT22;40978;52.850;6.506;2023-08-21T04:27:38;13.20;99.90
55083;DHT22;40978;52.850;6.506;2023-08-21T04:30:04;13.10;99.90
55083;DHT22;40978;52.850;6.506;2023-08-21T04:32:30;13.20;99.90
55083;DHT22;40978;52.850;6.506;2023-08-21T04:34:56;13.10;99.90
55083;DHT22;40978;52.850;6.506;2023-08-21T04:37:23;13.10;99.90
55083;DHT22;40978;52.850;6.506;2023-08-21T04:39:53;13.10;99.90
55083;DHT22;40978;52.850;6.506;2023-08-21T04:42:19;13.10;99.90
55083;DHT22;40978;52.850;6.506;2023-08-21T04:44:45;13.10;99.90
55083;DHT22;40978;52.850;6.506;2023-08-21T04:47:21;13.10;99.90
55083;DHT22;40978;52.850;6.506;2023-08-21T04:49:48;13.10;99.90
55083;DHT22;40978;52.850;6.506;2023-08-21T04:52:14;13.10;99.90
55083;DHT22;40978;52.850;6.506;2023-08-21T04:54:40;13.10;99.90
55083;DHT22;40978;52.850;6.506;2023-08-21T04:57:05;13.10;99.90
55083;DHT22;40978;52.850;6.506;2023-08-21T04:59:31;13.10;99.90
55083;DHT22;40978;52.850;6.506;2023-08-21T05:01:57;13.10;99.90
55083;DHT22;40978;52.850;6.506;2023-08-21T05:04:22;13.10;99.90
55083;DHT22;40978;52.850;6.506;2023-08-21T05:06:48;13.20;99.90
55083;DHT22;40978;52.850;6.506;2023-08-21T05:09:14;13.20;99.90
55083;DHT22;40978;52.850;6.506;2023-08-21T05:11:40;13.20;99.90
55083;DHT22;40978;52.850;6.506;2023-08-21T05:14:06;13.30;99.90
55083;DHT22;40978;52.850;6.506;2023-08-21T05:16:32;13.30;99.90
55083;DHT22;40978;52.850;6.506;2023-08-21T05:18:57;13.30;99.90
55083;DHT22;40978;52.850;6.506;2023-08-21T05:21:23;13.40;99.90
55083;DHT22;40978;52.850;6.506;2023-08-21T05:23:49;13.40;99.90
55083;DHT22;40978;52.850;6.506;2023-08-21T05:26:15;13.50;99.90
55083;DHT22;40978;52.850;6.506;2023-08-21T05:28:40;13.50;99.90
55083;DHT22;40978;52.850;6.506;2023-08-21T05:31:06;13.60;99.90
55083;DHT22;40978;52.850;6.506;2023-08-21T05:33:32;13.70;99.90
55083;DHT22;40978;52.850;6.506;2023-08-21T05:35:57;13.80;99.90
55083;DHT22;40978;52.850;6.506;2023-08-21T05:38:23;13.80;99.90
55083;DHT22;40978;52.850;6.506;2023-08-21T05:40:49;14.00;99.90
55083;DHT22;40978;52.850;6.506;2023-08-21T05:43:16;14.30;99.90
55083;DHT22;40978;52.850;6.506;2023-08-21T05:45:42;14.70;99.90
55083;DHT22;40978;52.850;6.506;2023-08-21T05:48:07;15.00;99.90
55083;DHT22;40978;52.850;6.506;2023-08-21T05:50:33;15.40;99.90
55083;DHT22;40978;52.850;6.506;2023-08-21T05:53:03;15.70;99.90
55083;DHT22;40978;52.850;6.506;2023-08-21T05:55:29;16.10;99.90
55083;DHT22;40978;52.850;6.506;2023-08-21T05:57:54;16.40;99.90
55083;DHT22;40978;52.850;6.506;2023-08-21T06:00:20;16.50;99.90
55083;DHT22;40978;52.850;6.506;2023-08-21T06:02:46;16.40;99.90
55083;DHT22;40978;52.850;6.506;2023-08-21T06:05:12;16.40;99.90
55083;DHT22;40978;52.850;6.506;2023-08-21T06:07:38;16.40;99.90
55083;DHT22;40978;52.850;6.506;2023-08-21T06:10:06;16.40;99.90
55083;DHT22;40978;52.850;6.506;2023-08-21T06:12:32;16.50;99.90
55083;DHT22;40978;52.850;6.506;2023-08-21T06:14:58;16.50;99.90
55083;DHT22;40978;52.850;6.506;2023-08-21T06:17:24;16.60;99.90
55083;DHT22;40978;52.850;6.506;2023-08-21T06:19:49;16.70;99.90
55083;DHT22;40978;52.850;6.506;2023-08-21T06:22:15;16.80;99.90
55083;DHT22;40978;52.850;6.506;2023-08-21T06:24:41;16.90;99.90
55083;DHT22;40978;52.850;6.506;2023-08-21T06:27:07;17.00;99.90
55083;DHT22;40978;52.850;6.506;2023-08-21T06:29:32;17.00;99.90
55083;DHT22;40978;52.850;6.506;2023-08-21T06:31:58;17.10;99.90
55083;DHT22;40978;52.850;6.506;2023-08-21T06:34:24;17.20;99.90
55083;DHT22;40978;52.850;6.506;2023-08-21T06:36:50;17.30;99.90
55083;DHT22;40978;52.850;6.506;2023-08-21T06:39:15;17.40;99.90
55083;DHT22;40978;52.850;6.506;2023-08-21T06:41:41;17.50;99.90
55083;DHT22;40978;52.850;6.506;2023-08-21T06:44:07;17.50;99.90
55083;DHT22;40978;52.850;6.506;2023-08-21T06:46:32;17.60;99.90
55083;DHT22;40978;52.850;6.506;2023-08-21T06:48:58;17.70;99.90
55083;DHT22;40978;52.850;6.506;2023-08-21T06:51:24;17.90;99.90
55083;DHT22;40978;52.850;6.506;2023-08-21T06:53:49;18.10;99.90
55083;DHT22;40978;52.850;6.506;2023-08-21T06:56:15;18.20;99.90
55083;DHT22;40978;52.850;6.506;2023-08-21T06:58:41;18.30;99.90
55083;DHT22;40978;52.850;6.506;2023-08-21T07:01:07;18.50;99.90
55083;DHT22;40978;52.850;6.506;2023-08-21T07:03:32;18.60;99.90
55083;DHT22;40978;52.850;6.506;2023-08-21T07:05:59;18.70;99.90
55083;DHT22;40978;52.850;6.506;2023-08-21T07:08:26;18.80;99.90
55083;DHT22;40978;52.850;6.506;2023-08-21T07:10:52;18.90;99.90
55083;DHT22;40978;52.850;6.506;2023-08-21T07:13:19;19.10;99.90
55083;DHT22;40978;52.850;6.506;2023-08-21T07:15:46;19.20;99.90
55083;DHT22;40978;52.850;6.506;2023-08-21T07:18:11;19.30;99.90
55083;DHT22;40978;52.850;6.506;2023-08-21T07:20:37;19.50;99.90
55083;DHT22;40978;52.850;6.506;2023-08-21T07:23:03;19.60;99.90
55083;DHT22;40978;52.850;6.506;2023-08-21T07:25:29;19.80;99.90
55083;DHT22;40978;52.850;6.506;2023-08-21T07:27:55;19.90;99.90
55083;DHT22;40978;52.850;6.506;2023-08-21T07:30:21;20.10;99.90
55083;DHT22;40978;52.850;6.506;2023-08-21T07:32:48;20.20;99.90
55083;DHT22;40978;52.850;6.506;2023-08-21T07:35:14;20.20;99.90
55083;DHT22;40978;52.850;6.506;2023-08-21T07:37:43;20.30;99.90
55083;DHT22;40978;52.850;6.506;2023-08-21T07:40:09;20.40;99.90
55083;DHT22;40978;52.850;6.506;2023-08-21T07:42:35;20.50;99.90
55083;DHT22;40978;52.850;6.506;2023-08-21T07:45:01;20.70;99.90
55083;DHT22;40978;52.850;6.506;2023-08-21T07:47:27;20.80;99.90
55083;DHT22;40978;52.850;6.506;2023-08-21T07:49:53;20.80;99.90
55083;DHT22;40978;52.850;6.506;2023-08-21T07:52:19;21.00;99.90
55083;DHT22;40978;52.850;6.506;2023-08-21T07:54:45;21.10;99.90
55083;DHT22;40978;52.850;6.506;2023-08-21T07:57:11;21.20;99.90
55083;DHT22;40978;52.850;6.506;2023-08-21T07:59:37;21.30;99.90
55083;DHT22;40978;52.850;6.506;2023-08-21T08:02:03;21.50;99.90
55083;DHT22;40978;52.850;6.506;2023-08-21T08:04:30;21.50;99.90
55083;DHT22;40978;52.850;6.506;2023-08-21T08:06:56;21.60;99.90
55083;DHT22;40978;52.850;6.506;2023-08-21T08:09:22;21.70;99.90
55083;DHT22;40978;52.850;6.506;2023-08-21T08:11:47;21.80;99.90
55083;DHT22;40978;52.850;6.506;2023-08-21T08:14:13;21.90;99.90
55083;DHT22;40978;52.850;6.506;2023-08-21T08:16:39;22.00;99.90
55083;DHT22;40978;52.850;6.506;2023-08-21T08:19:05;22.10;99.90
55083;DHT22;40978;52.850;6.506;2023-08-21T08:21:30;22.20;99.90
55083;DHT22;40978;52.850;6.506;2023-08-21T08:23:56;22.30;99.90
55083;DHT22;40978;52.850;6.506;2023-08-21T08:26:22;22.50;99.90
55083;DHT22;40978;52.850;6.506;2023-08-21T08:28:48;22.60;99.90
55083;DHT22;40978;52.850;6.506;2023-08-21T08:31:15;22.70;99.90
55083;DHT22;40978;52.850;6.506;2023-08-21T08:33:41;22.90;99.90
55083;DHT22;40978;52.850;6.506;2023-08-21T08:36:07;23.10;99.90
55083;DHT22;40978;52.850;6.506;2023-08-21T08:38:33;23.20;99.90
55083;DHT22;40978;52.850;6.506;2023-08-21T08:41:02;23.40;99.90
55083;DHT22;40978;52.850;6.506;2023-08-21T08:43:28;23.50;99.90
55083;DHT22;40978;52.850;6.506;2023-08-21T08:45:56;23.60;99.90
55083;DHT22;40978;52.850;6.506;2023-08-21T08:48:23;23.70;99.90
55083;DHT22;40978;52.850;6.506;2023-08-21T08:50:50;23.80;99.90
55083;DHT22;40978;52.850;6.506;2023-08-21T08:53:18;23.80;99.90
55083;DHT22;40978;52.850;6.506;2023-08-21T08:55:46;23.90;99.90
55083;DHT22;40978;52.850;6.506;2023-08-21T08:58:14;24.10;99.90
55083;DHT22;40978;52.850;6.506;2023-08-21T09:00:39;24.30;99.90
55083;DHT22;40978;52.850;6.506;2023-08-21T09:03:05;24.50;99.90
55083;DHT22;40978;52.850;6.506;2023-08-21T09:05:32;24.60;99.90
55083;DHT22;40978;52.850;6.506;2023-08-21T09:08:13;24.80;99.90
55083;DHT22;40978;52.850;6.506;2023-08-21T09:10:41;25.00;99.90
55083;DHT22;40978;52.850;6.506;2023-08-21T09:13:14;25.30;99.90
55083;DHT22;40978;52.850;6.506;2023-08-21T09:15:42;25.60;99.90
55083;DHT22;40978;52.850;6.506;2023-08-21T09:18:10;26.00;99.90
55083;DHT22;40978;52.850;6.506;2023-08-21T09:20:37;26.40;99.90
55083;DHT22;40978;52.850;6.506;2023-08-21T09:23:03;26.70;99.90
55083;DHT22;40978;52.850;6.506;2023-08-21T09:25:55;27.10;99.90
55083;DHT22;40978;52.850;6.506;2023-08-21T09:28:21;27.40;99.90
55083;DHT22;40978;52.850;6.506;2023-08-21T09:30:51;27.60;99.90
55083;DHT22;40978;52.850;6.506;2023-08-21T09:33:19;27.80;99.90
55083;DHT22;40978;52.850;6.506;2023-08-21T09:35:46;27.90;99.90
55083;DHT22;40978;52.850;6.506;2023-08-21T09:38:11;28.10;99.90
55083;DHT22;40978;52.850;6.506;2023-08-21T09:40:42;28.40;99.90
55083;DHT22;40978;52.850;6.506;2023-08-21T09:43:11;28.40;99.90
55083;DHT22;40978;52.850;6.506;2023-08-21T09:45:37;28.40;99.90
55083;DHT22;40978;52.850;6.506;2023-08-21T09:48:03;28.20;99.90
55083;DHT22;40978;52.850;6.506;2023-08-21T09:50:30;28.20;99.90
55083;DHT22;40978;52.850;6.506;2023-08-21T09:52:57;28.10;99.90
55083;DHT22;40978;52.850;6.506;2023-08-21T09:55:24;28.00;98.20
55083;DHT22;40978;52.850;6.506;2023-08-21T09:57:51;27.90;99.90
55083;DHT22;40978;52.850;6.506;2023-08-21T10:00:28;27.80;95.00
55083;DHT22;40978;52.850;6.506;2023-08-21T10:02:57;27.70;92.40
55083;DHT22;40978;52.850;6.506;2023-08-21T10:05:24;27.70;97.80
55083;DHT22;40978;52.850;6.506;2023-08-21T10:07:51;27.80;99.90
55083;DHT22;40978;52.850;6.506;2023-08-21T10:10:17;28.10;99.90
55083;DHT22;40978;52.850;6.506;2023-08-21T10:12:43;28.20;99.90
55083;DHT22;40978;52.850;6.506;2023-08-21T10:15:09;28.40;99.90
55083;DHT22;40978;52.850;6.506;2023-08-21T10:17:36;28.70;99.90
55083;DHT22;40978;52.850;6.506;2023-08-21T10:20:06;28.70;99.90
55083;DHT22;40978;52.850;6.506;2023-08-21T10:22:43;28.90;99.90
55083;DHT22;40978;52.850;6.506;2023-08-21T10:25:17;29.00;99.90
55083;DHT22;40978;52.850;6.506;2023-08-21T10:27:43;29.10;97.50
55083;DHT22;40978;52.850;6.506;2023-08-21T10:30:14;29.30;99.90
55083;DHT22;40978;52.850;6.506;2023-08-21T10:32:47;29.40;97.60
55083;DHT22;40978;52.850;6.506;2023-08-21T10:35:19;29.50;91.70
55083;DHT22;40978;52.850;6.506;2023-08-21T10:38:13;29.50;98.60
55083;DHT22;40978;52.850;6.506;2023-08-21T10:41:03;29.60;75.50
55083;DHT22;40978;52.850;6.506;2023-08-21T10:43:45;29.50;95.10
55083;DHT22;40978;52.850;6.506;2023-08-21T10:46:11;29.50;90.00
55083;DHT22;40978;52.850;6.506;2023-08-21T10:48:38;29.50;96.20
55083;DHT22;40978;52.850;6.506;2023-08-21T10:51:06;29.60;95.60
55083;DHT22;40978;52.850;6.506;2023-08-21T10:53:33;29.70;93.00
55083;DHT22;40978;52.850;6.506;2023-08-21T10:56:04;29.80;90.60
55083;DHT22;40978;52.850;6.506;2023-08-21T10:58:43;29.90;91.40
55083;DHT22;40978;52.850;6.506;2023-08-21T11:01:09;30.10;91.80
55083;DHT22;40978;52.850;6.506;2023-08-21T11:03:38;30.10;93.20
55083;DHT22;40978;52.850;6.506;2023-08-21T11:06:09;30.20;95.20
55083;DHT22;40978;52.850;6.506;2023-08-21T11:08:36;30.20;82.60
55083;DHT22;40978;52.850;6.506;2023-08-21T11:11:03;30.10;83.40
55083;DHT22;40978;52.850;6.506;2023-08-21T11:13:29;30.00;77.20
55083;DHT22;40978;52.850;6.506;2023-08-21T11:16:02;29.80;85.80
55083;DHT22;40978;52.850;6.506;2023-08-21T11:18:33;29.50;79.30
55083;DHT22;40978;52.850;6.506;2023-08-21T11:21:09;28.90;73.80
55083;DHT22;40978;52.850;6.506;2023-08-21T11:23:37;28.70;78.20
55083;DHT22;40978;52.850;6.506;2023-08-21T11:26:04;28.80;84.80
55083;DHT22;40978;52.850;6.506;2023-08-21T11:28:30;28.80;76.70
55083;DHT22;40978;52.850;6.506;2023-08-21T11:30:57;29.00;73.30
55083;DHT22;40978;52.850;6.506;2023-08-21T11:33:23;29.40;84.50
55083;DHT22;40978;52.850;6.506;2023-08-21T11:35:49;29.90;83.40
55083;DHT22;40978;52.850;6.506;2023-08-21T11:38:18;29.80;68.90
55083;DHT22;40978;52.850;6.506;2023-08-21T11:40:52;29.10;64.20
55083;DHT22;40978;52.850;6.506;2023-08-21T11:43:17;28.60;68.50
55083;DHT22;40978;52.850;6.506;2023-08-21T11:45:45;28.30;72.40
55083;DHT22;40978;52.850;6.506;2023-08-21T11:48:11;28.40;67.40
55083;DHT22;40978;52.850;6.506;2023-08-21T11:50:37;28.50;71.50
55083;DHT22;40978;52.850;6.506;2023-08-21T11:53:03;28.70;76.60
55083;DHT22;40978;52.850;6.506;2023-08-21T11:55:29;28.90;78.80
55083;DHT22;40978;52.850;6.506;2023-08-21T11:57:55;29.10;79.00
55083;DHT22;40978;52.850;6.506;2023-08-21T12:00:28;29.50;77.50
55083;DHT22;40978;52.850;6.506;2023-08-21T12:02:59;29.90;71.30
55083;DHT22;40978;52.850;6.506;2023-08-21T12:05:27;30.30;72.80
55083;DHT22;40978;52.850;6.506;2023-08-21T12:07:54;30.60;72.90
55083;DHT22;40978;52.850;6.506;2023-08-21T12:10:27;30.60;70.50
55083;DHT22;40978;52.850;6.506;2023-08-21T12:12:53;30.00;63.30
55083;DHT22;40978;52.850;6.506;2023-08-21T12:15:19;29.80;68.60
55083;DHT22;40978;52.850;6.506;2023-08-21T12:17:45;29.80;67.80
55083;DHT22;40978;52.850;6.506;2023-08-21T12:20:11;29.90;67.60
55083;DHT22;40978;52.850;6.506;2023-08-21T12:22:39;30.20;71.10
55083;DHT22;40978;52.850;6.506;2023-08-21T12:25:06;30.10;66.10
55083;DHT22;40978;52.850;6.506;2023-08-21T12:27:32;29.90;70.10
55083;DHT22;40978;52.850;6.506;2023-08-21T12:29:58;30.20;70.50
55083;DHT22;40978;52.850;6.506;2023-08-21T12:32:24;30.70;67.00
55083;DHT22;40978;52.850;6.506;2023-08-21T12:34:50;31.20;69.80
55083;DHT22;40978;52.850;6.506;2023-08-21T12:37:15;31.70;71.80
55083;DHT22;40978;52.850;6.506;2023-08-21T12:39:41;32.00;71.30
55083;DHT22;40978;52.850;6.506;2023-08-21T12:42:07;32.20;69.60
55083;DHT22;40978;52.850;6.506;2023-08-21T12:44:33;32.20;68.20
55083;DHT22;40978;52.850;6.506;2023-08-21T12:46:59;31.90;67.20
55083;DHT22;40978;52.850;6.506;2023-08-21T12:49:25;31.00;59.50
55083;DHT22;40978;52.850;6.506;2023-08-21T12:51:51;30.50;62.40
55083;DHT22;40978;52.850;6.506;2023-08-21T12:54:16;30.20;61.30
55083;DHT22;40978;52.850;6.506;2023-08-21T12:56:42;30.20;58.80
55083;DHT22;40978;52.850;6.506;2023-08-21T12:59:08;30.30;58.60
55083;DHT22;40978;52.850;6.506;2023-08-21T13:01:34;30.50;59.50
55083;DHT22;40978;52.850;6.506;2023-08-21T13:04:01;30.70;58.50
55083;DHT22;40978;52.850;6.506;2023-08-21T13:06:27;30.90;58.50
55083;DHT22;40978;52.850;6.506;2023-08-21T13:08:53;30.90;54.90
55083;DHT22;40978;52.850;6.506;2023-08-21T13:11:19;31.10;58.90
55083;DHT22;40978;52.850;6.506;2023-08-21T13:13:45;31.20;54.70
55083;DHT22;40978;52.850;6.506;2023-08-21T13:16:11;31.30;57.70
55083;DHT22;40978;52.850;6.506;2023-08-21T13:18:36;31.30;54.90
55083;DHT22;40978;52.850;6.506;2023-08-21T13:21:03;31.10;56.50
55083;DHT22;40978;52.850;6.506;2023-08-21T13:23:29;30.90;59.90
55083;DHT22;40978;52.850;6.506;2023-08-21T13:25:56;30.10;57.50
55083;DHT22;40978;52.850;6.506;2023-08-21T13:28:23;29.40;59.80
55083;DHT22;40978;52.850;6.506;2023-08-21T13:30:49;29.10;62.50
55083;DHT22;40978;52.850;6.506;2023-08-21T13:33:15;28.70;62.70
55083;DHT22;40978;52.850;6.506;2023-08-21T13:35:46;28.60;60.80
55083;DHT22;40978;52.850;6.506;2023-08-21T13:38:14;28.50;60.80
55083;DHT22;40978;52.850;6.506;2023-08-21T13:40:40;28.50;60.00
55083;DHT22;40978;52.850;6.506;2023-08-21T13:43:07;28.50;63.70
55083;DHT22;40978;52.850;6.506;2023-08-21T13:45:35;28.50;64.90
55083;DHT22;40978;52.850;6.506;2023-08-21T13:48:01;28.50;66.40
55083;DHT22;40978;52.850;6.506;2023-08-21T13:50:26;28.50;64.80
55083;DHT22;40978;52.850;6.506;2023-08-21T13:52:52;28.50;66.20
55083;DHT22;40978;52.850;6.506;2023-08-21T13:55:18;28.40;64.10
55083;DHT22;40978;52.850;6.506;2023-08-21T13:57:44;28.40;66.60
55083;DHT22;40978;52.850;6.506;2023-08-21T14:00:10;28.40;67.70
55083;DHT22;40978;52.850;6.506;2023-08-21T14:02:38;28.30;65.80
55083;DHT22;40978;52.850;6.506;2023-08-21T14:05:04;28.30;66.70
55083;DHT22;40978;52.850;6.506;2023-08-21T14:07:34;28.20;65.10
55083;DHT22;40978;52.850;6.506;2023-08-21T14:09:59;28.20;67.10
55083;DHT22;40978;52.850;6.506;2023-08-21T14:12:27;28.10;65.80
55083;DHT22;40978;52.850;6.506;2023-08-21T14:14:53;28.00;65.40
55083;DHT22;40978;52.850;6.506;2023-08-21T14:17:18;27.90;66.90
55083;DHT22;40978;52.850;6.506;2023-08-21T14:19:44;27.90;66.20
55083;DHT22;40978;52.850;6.506;2023-08-21T14:22:10;27.80;68.00
55083;DHT22;40978;52.850;6.506;2023-08-21T14:24:35;27.70;67.20
55083;DHT22;40978;52.850;6.506;2023-08-21T14:27:01;27.60;67.00
55083;DHT22;40978;52.850;6.506;2023-08-21T14:29:27;27.60;68.20
55083;DHT22;40978;52.850;6.506;2023-08-21T14:31:53;27.50;67.60
55083;DHT22;40978;52.850;6.506;2023-08-21T14:34:22;27.40;67.40
55083;DHT22;40978;52.850;6.506;2023-08-21T14:36:48;27.40;66.80
55083;DHT22;40978;52.850;6.506;2023-08-21T14:39:14;27.40;66.50
55083;DHT22;40978;52.850;6.506;2023-08-21T14:41:43;27.30;65.50
55083;DHT22;40978;52.850;6.506;2023-08-21T14:44:09;27.20;66.50
55083;DHT22;40978;52.850;6.506;2023-08-21T14:46:36;27.20;66.20
55083;DHT22;40978;52.850;6.506;2023-08-21T14:49:02;27.00;67.10
55083;DHT22;40978;52.850;6.506;2023-08-21T14:51:27;26.90;68.10
55083;DHT22;40978;52.850;6.506;2023-08-21T14:53:53;26.90;67.80
55083;DHT22;40978;52.850;6.506;2023-08-21T14:56:22;26.80;68.00
55083;DHT22;40978;52.850;6.506;2023-08-21T14:58:48;26.70;66.20
55083;DHT22;40978;52.850;6.506;2023-08-21T15:01:14;26.60;68.10
55083;DHT22;40978;52.850;6.506;2023-08-21T15:03:40;26.50;69.30
55083;DHT22;40978;52.850;6.506;2023-08-21T15:06:06;26.40;69.60
55083;DHT22;40978;52.850;6.506;2023-08-21T15:08:32;26.40;70.00
55083;DHT22;40978;52.850;6.506;2023-08-21T15:10:58;26.40;70.50
55083;DHT22;40978;52.850;6.506;2023-08-21T15:13:24;26.30;71.60
55083;DHT22;40978;52.850;6.506;2023-08-21T15:15:49;26.30;70.70
55083;DHT22;40978;52.850;6.506;2023-08-21T15:18:15;26.30;71.90
55083;DHT22;40978;52.850;6.506;2023-08-21T15:20:41;26.20;71.70
55083;DHT22;40978;52.850;6.506;2023-08-21T15:23:06;26.20;69.40
55083;DHT22;40978;52.850;6.506;2023-08-21T15:25:32;26.10;70.60
55083;DHT22;40978;52.850;6.506;2023-08-21T15:27:57;26.00;69.40